Santa Cruz, California
Current Conditions -  °F | °C
As of 6:53 PM on Monday 20 Oct 2014 (Local Time) from KWVI Reporting Station
Clear Clear  
Wind Chill: 64°   Ceiling: Unl
Heat Index: 64°   Visibility: 10mi
Dew Point: 55°   Wind: 6mph
Humidity: 72%   Direction: 240°WSW
Pressure: 30"   Gusts: NA
Location:  36.97°N, 122.03°W
Report Text: KWVI 210153Z AUTO 24005KT 10SM CLR 18/13 A3000 RMK AO2 SLP158 T01780128
Loading
Personal Weather Stations






























Interactive Weather Map
Tropical Storm Tracking
New forecast layout! Learn more

10-Day Weather Forecast

Advertisements
Track Severe Weather on mobile